Huntsville International Carl T Jones Field Huntsville US
ICAO: KHSV
IATA: HSV
Category: Large
Scheduled Services: Yes

Elevation: 629 ft
TransAlt. 18000 ft.

Airport Communications:
APP:118.05
ATIS:121.25
CLNC DEL:120.35
CTAF:127.6
DEP:118.05
GND:121.9
ANNISTON RDO:122.2
TWR:127.6
UNICOM:122.95

KHSV Zoom In..

Runways:

(A) RW 18L length 10006 ft width 150 ft
ILS 111.90 / hdg 182

(B) RW 18R length 12600 ft width 150 ft
ILS 109.30 / hdg 182

(C) RW 36L length 12600 ft width 150 ft
ILS 108.50 / hdg 2

(D) RW 36R length 10006 ft width 150 ft
ILS 109.55 / hdg 2

Location; KHSV
Day. 24 / Time. 01.53 Zulu
* Altimeter: 30.23
* Temperature: 03° c. 37.4°f.
* Wind from: 300° Speed 03 kn.
Dewpoint: -02° c.
Visibility: 10 Statute Miles.
Clouds: Clear (automated report).

KHSV 240153Z 30003KT 10SM CLR 03/M02 A3023 RMK AO2 SLP237 T00281017


Wind From 300°
Speed 03 kn.

YouTube Music Video
 
jpsmedia.com for Web Design  worldairports.se 2018   terms of use